createdAt,value
2022-10-09T00:03:04.609Z,8.44
2022-10-09T00:08:12.453Z,8.39
2022-10-09T00:13:19.551Z,8.36
2022-10-09T00:18:26.475Z,8.31
2022-10-09T00:23:33.830Z,8.25
2022-10-09T00:28:41.400Z,8.19
2022-10-09T00:33:48.846Z,8.15
2022-10-09T00:38:56.283Z,8.10
2022-10-09T00:44:10.932Z,8.03
2022-10-09T00:49:25.926Z,7.96
2022-10-09T00:54:35.280Z,7.91
2022-10-09T00:59:42.924Z,7.88
2022-10-09T01:04:50.103Z,7.86
2022-10-09T01:10:03.168Z,7.83
2022-10-09T01:15:18.977Z,7.78
2022-10-09T01:20:33.293Z,7.74
2022-10-09T01:25:55.457Z,7.73
2022-10-09T01:31:06.678Z,7.70
2022-10-09T01:36:15.179Z,7.66
2022-10-09T01:41:23.540Z,7.62
2022-10-09T01:46:33.896Z,7.59
2022-10-09T01:51:49.019Z,7.57
2022-10-09T01:57:01.212Z,7.53
2022-10-09T02:02:09.965Z,7.48
2022-10-09T02:07:17.884Z,7.43
2022-10-09T02:12:28.255Z,7.41
2022-10-09T02:17:40.671Z,7.40
2022-10-09T02:22:50.753Z,7.37
2022-10-09T02:27:59.011Z,7.33
2022-10-09T02:33:04.997Z,7.29
2022-10-09T02:38:11.987Z,7.26
2022-10-09T02:43:19.140Z,7.30
2022-10-09T02:48:26.157Z,7.36
2022-10-09T02:53:33.341Z,7.40
2022-10-09T02:58:41.463Z,7.44
2022-10-09T03:03:49.235Z,7.50
2022-10-09T03:08:57.107Z,7.56
2022-10-09T03:14:04.243Z,7.60
2022-10-09T03:19:11.600Z,7.61
2022-10-09T03:24:18.556Z,7.63
2022-10-09T03:29:25.811Z,7.67
2022-10-09T03:34:32.884Z,7.73
2022-10-09T03:39:39.857Z,7.78
2022-10-09T03:44:47.327Z,7.78
2022-10-09T03:49:54.252Z,7.79
2022-10-09T03:55:01.268Z,7.81
2022-10-09T04:00:10.658Z,7.86
2022-10-09T04:05:17.928Z,7.86
2022-10-09T04:10:24.879Z,7.84
2022-10-09T04:15:31.915Z,7.84
2022-10-09T04:20:45.475Z,7.87
2022-10-09T04:25:56.011Z,7.90
2022-10-09T04:31:03.120Z,7.94
2022-10-09T04:36:10.538Z,7.93
2022-10-09T04:41:17.585Z,7.94
2022-10-09T04:46:25.200Z,7.96
2022-10-09T04:51:32.355Z,7.98
2022-10-09T04:56:39.402Z,8.01
2022-10-09T05:01:46.556Z,8.02
2022-10-09T05:06:53.660Z,8.01
2022-10-09T05:12:00.637Z,8.02
2022-10-09T05:17:15.277Z,8.05
2022-10-09T05:22:23.223Z,8.06
2022-10-09T05:27:30.140Z,8.07
2022-10-09T05:32:37.135Z,8.09
2022-10-09T05:37:46.847Z,8.11
2022-10-09T05:42:53.948Z,8.14
2022-10-09T05:48:00.972Z,8.19
2022-10-09T05:53:08.057Z,8.25
2022-10-09T05:58:15.142Z,8.29
2022-10-09T06:03:22.314Z,8.34
2022-10-09T06:08:29.420Z,8.42
2022-10-09T06:13:36.683Z,8.51
2022-10-09T06:18:49.125Z,8.60
2022-10-09T06:23:58.735Z,8.67
2022-10-09T06:29:10.362Z,8.72
2022-10-09T06:34:17.714Z,8.80
2022-10-09T06:39:28.596Z,8.92
2022-10-09T06:44:36.143Z,9.01
2022-10-09T06:49:59.005Z,9.10
2022-10-09T06:55:14.531Z,9.22
2022-10-09T07:00:23.332Z,9.35
2022-10-09T07:05:30.982Z,9.50
2022-10-09T07:10:41.723Z,9.61
2022-10-09T07:15:49.297Z,9.70
2022-10-09T07:20:58.168Z,9.77
2022-10-09T07:26:16.158Z,9.84
2022-10-09T07:31:24.172Z,9.92
2022-10-09T07:36:34.231Z,10.05
2022-10-09T07:41:41.959Z,10.15
2022-10-09T07:46:50.444Z,10.23
2022-10-09T07:51:58.922Z,10.34
2022-10-09T07:57:07.136Z,10.48
2022-10-09T08:02:15.969Z,10.64
2022-10-09T08:07:23.035Z,10.84
2022-10-09T08:12:30.175Z,10.99
2022-10-09T08:17:37.219Z,11.07
2022-10-09T08:23:05.781Z,11.15
2022-10-09T08:28:16.676Z,11.31
2022-10-09T08:33:23.598Z,11.73
2022-10-09T08:38:46.562Z,12.16
2022-10-09T08:44:04.279Z,12.48
2022-10-09T08:49:23.716Z,12.64
2022-10-09T08:54:35.801Z,12.72
2022-10-09T08:59:43.301Z,13.06
2022-10-09T09:05:14.290Z,13.78
2022-10-09T09:10:35.612Z,14.41
2022-10-09T09:15:51.451Z,14.99
2022-10-09T09:21:03.592Z,15.38
2022-10-09T09:26:17.489Z,15.35
2022-10-09T09:31:28.450Z,15.08
2022-10-09T09:36:41.557Z,14.70
2022-10-09T09:41:48.564Z,14.74
2022-10-09T09:46:55.931Z,14.97
2022-10-09T09:52:03.938Z,15.17
2022-10-09T09:57:15.069Z,15.36
2022-10-09T10:02:29.080Z,15.32
2022-10-09T10:07:38.445Z,15.13
2022-10-09T10:12:54.677Z,14.93
2022-10-09T10:18:07.327Z,14.77
2022-10-09T10:23:26.239Z,14.56
2022-10-09T10:28:38.331Z,14.45
2022-10-09T10:33:51.962Z,14.49
2022-10-09T10:39:08.085Z,14.46
2022-10-09T10:44:24.267Z,14.44
2022-10-09T10:49:33.958Z,14.47
2022-10-09T10:54:44.386Z,14.59
2022-10-09T11:00:04.286Z,14.67
2022-10-09T11:05:20.347Z,14.73
2022-10-09T11:10:35.470Z,14.80
2022-10-09T11:15:53.224Z,14.75
2022-10-09T11:21:34.565Z,14.63
2022-10-09T11:26:50.314Z,14.56
2022-10-09T11:32:05.244Z,14.56
2022-10-09T11:37:24.172Z,14.50
2022-10-09T11:42:34.227Z,14.50
2022-10-09T11:47:52.640Z,14.57
2022-10-09T11:53:05.245Z,14.68
2022-10-09T11:58:22.273Z,14.82
2022-10-09T12:03:34.041Z,14.95
2022-10-09T12:08:43.511Z,15.01
2022-10-09T12:13:54.692Z,15.03
2022-10-09T12:19:03.926Z,14.98
2022-10-09T12:24:20.623Z,14.85
2022-10-09T12:29:31.671Z,14.73
2022-10-09T12:34:44.980Z,14.62
2022-10-09T12:39:52.297Z,14.51
2022-10-09T12:45:01.350Z,14.38
2022-10-09T12:50:24.772Z,14.30
2022-10-09T12:55:36.952Z,14.25
2022-10-09T13:00:44.297Z,14.19
2022-10-09T13:05:52.275Z,14.14
2022-10-09T13:11:11.638Z,14.15
2022-10-09T13:16:19.536Z,14.16
2022-10-09T13:21:31.502Z,14.16
2022-10-09T13:26:44.078Z,14.08
2022-10-09T13:31:51.488Z,14.05
2022-10-09T13:36:58.993Z,14.05
2022-10-09T13:42:07.234Z,14.02
2022-10-09T13:47:14.485Z,14.00
2022-10-09T13:52:21.761Z,14.01
2022-10-09T13:57:29.822Z,14.03
2022-10-09T14:02:37.523Z,14.09
2022-10-09T14:07:45.279Z,14.18
2022-10-09T14:12:53.495Z,14.24
2022-10-09T14:18:01.082Z,14.30
2022-10-09T14:23:06.979Z,14.35
2022-10-09T14:28:14.853Z,14.35
2022-10-09T14:33:22.807Z,14.32
2022-10-09T14:38:30.125Z,14.24
2022-10-09T14:44:06.468Z,14.17
2022-10-09T14:49:26.074Z,14.09
2022-10-09T14:54:39.909Z,14.01
2022-10-09T14:59:49.039Z,13.95
2022-10-09T15:04:56.293Z,13.88
2022-10-09T15:10:03.724Z,13.81
2022-10-09T15:15:12.715Z,13.75
2022-10-09T15:20:20.029Z,13.73
2022-10-09T15:25:31.510Z,13.72
2022-10-09T15:30:47.517Z,13.68
2022-10-09T15:35:57.779Z,13.60
2022-10-09T15:41:07.495Z,13.48
2022-10-09T15:46:27.695Z,13.30
2022-10-09T15:51:38.088Z,13.11
2022-10-09T15:56:45.547Z,12.88
2022-10-09T16:01:52.816Z,12.64
2022-10-09T16:07:00.174Z,12.41
2022-10-09T16:12:07.646Z,12.21
2022-10-09T16:17:14.880Z,12.02
2022-10-09T16:22:22.561Z,11.83
2022-10-09T16:27:30.033Z,11.61
2022-10-09T16:32:37.213Z,11.39
2022-10-09T16:37:54.706Z,11.14
2022-10-09T16:43:02.364Z,10.93
2022-10-09T16:48:09.778Z,10.71
2022-10-09T16:53:21.423Z,10.52
2022-10-09T16:58:28.791Z,10.32
2022-10-09T17:03:36.462Z,10.14
2022-10-09T17:08:43.546Z,9.96
2022-10-09T17:13:58.008Z,9.72
2022-10-09T17:19:06.502Z,9.45
2022-10-09T17:24:19.765Z,9.17
2022-10-09T17:29:28.590Z,9.02
2022-10-09T17:35:14.729Z,8.94
2022-10-09T17:40:46.770Z,8.82
2022-10-09T17:45:56.680Z,8.68
2022-10-09T17:51:18.845Z,8.49
2022-10-09T17:56:26.889Z,8.32
2022-10-09T18:01:34.699Z,8.14
2022-10-09T18:06:40.450Z,8.00
2022-10-09T18:11:47.685Z,7.87
2022-10-09T18:16:55.291Z,7.80
2022-10-09T18:22:02.994Z,7.77
2022-10-09T18:27:12.939Z,7.67
2022-10-09T18:32:20.686Z,7.51
2022-10-09T18:37:31.279Z,7.33
2022-10-09T18:42:38.747Z,7.15
2022-10-09T18:47:46.978Z,7.03
2022-10-09T18:52:55.522Z,6.98
2022-10-09T18:58:07.149Z,6.96
2022-10-09T19:03:14.464Z,6.99
2022-10-09T19:08:22.319Z,6.94
2022-10-09T19:13:29.760Z,6.83
2022-10-09T19:18:37.313Z,6.65
2022-10-09T19:23:47.740Z,6.41
2022-10-09T19:28:58.037Z,6.29
2022-10-09T19:34:19.038Z,6.26
2022-10-09T19:39:29.327Z,6.24
2022-10-09T19:44:35.238Z,6.16
2022-10-09T19:49:43.520Z,6.02
2022-10-09T19:54:53.428Z,5.87
2022-10-09T20:00:03.210Z,5.73
2022-10-09T20:05:15.614Z,5.61
2022-10-09T20:10:23.207Z,5.54
2022-10-09T20:15:31.782Z,5.48
2022-10-09T20:20:42.422Z,5.43
2022-10-09T20:26:08.227Z,5.32
2022-10-09T20:31:18.900Z,5.25
2022-10-09T20:36:30.326Z,5.18
2022-10-09T20:41:39.249Z,5.13
2022-10-09T20:46:50.236Z,5.16
2022-10-09T20:52:00.413Z,5.23
2022-10-09T20:57:13.941Z,5.27
2022-10-09T21:02:23.350Z,5.21
2022-10-09T21:07:36.131Z,5.11
2022-10-09T21:12:43.986Z,4.97
2022-10-09T21:17:56.756Z,4.83
2022-10-09T21:23:05.954Z,4.78
2022-10-09T21:28:14.601Z,4.78
2022-10-09T21:33:23.455Z,4.75
2022-10-09T21:38:33.550Z,4.60
2022-10-09T21:43:41.488Z,4.58
2022-10-09T21:48:49.076Z,4.65
2022-10-09T21:53:57.968Z,4.76
2022-10-09T21:59:06.858Z,4.79
2022-10-09T22:04:14.876Z,4.71
2022-10-09T22:09:25.595Z,4.63
2022-10-09T22:14:40.184Z,4.56
2022-10-09T22:19:47.826Z,4.51
2022-10-09T22:25:01.142Z,4.50
2022-10-09T22:30:22.372Z,4.44
2022-10-09T22:35:30.876Z,4.37
2022-10-09T22:40:38.488Z,4.30
2022-10-09T22:45:46.002Z,4.28
2022-10-09T22:50:57.040Z,4.27
2022-10-09T22:56:08.035Z,4.26
2022-10-09T23:01:22.056Z,4.24
2022-10-09T23:06:30.113Z,4.21
2022-10-09T23:11:38.370Z,4.24
2022-10-09T23:16:47.500Z,4.19
2022-10-09T23:21:55.705Z,4.22
2022-10-09T23:27:03.340Z,4.28
2022-10-09T23:32:11.888Z,4.38
2022-10-09T23:37:19.919Z,4.50
2022-10-09T23:42:29.674Z,4.65
2022-10-09T23:47:37.611Z,4.69
2022-10-09T23:52:43.856Z,4.57
2022-10-09T23:57:54.769Z,4.45
